createdAt,value
2018-04-22T00:01:09.451Z,13.20
2018-04-22T00:03:37.898Z,13.10
2018-04-22T00:06:07.276Z,13.10
2018-04-22T00:08:35.902Z,13.10
2018-04-22T00:11:04.328Z,13.00
2018-04-22T00:13:32.670Z,13.00
2018-04-22T00:16:02.239Z,13.00
2018-04-22T00:18:30.700Z,12.90
2018-04-22T00:20:59.153Z,12.90
2018-04-22T00:23:27.491Z,12.90
2018-04-22T00:25:56.975Z,12.80
2018-04-22T00:28:26.099Z,12.70
2018-04-22T00:30:54.440Z,12.70
2018-04-22T00:33:22.792Z,12.70
2018-04-22T00:35:51.128Z,12.70
2018-04-22T00:38:20.230Z,12.60
2018-04-22T00:40:48.578Z,12.60
2018-04-22T00:43:17.108Z,12.50
2018-04-22T00:45:45.621Z,12.50
2018-04-22T00:48:14.053Z,12.50
2018-04-22T00:50:43.801Z,12.20
2018-04-22T00:53:12.141Z,12.20
2018-04-22T00:55:41.353Z,12.20
2018-04-22T00:58:09.702Z,12.20
2018-04-22T01:00:38.895Z,12.20
2018-04-22T01:03:07.241Z,12.20
2018-04-22T01:05:35.586Z,12.20
2018-04-22T01:08:03.932Z,12.20
2018-04-22T01:10:33.058Z,12.10
2018-04-22T01:13:01.517Z,12.10
2018-04-22T01:15:29.924Z,12.10
2018-04-22T01:17:58.264Z,12.10
2018-04-22T01:20:26.715Z,12.00
2018-04-22T01:22:55.101Z,12.00
2018-04-22T01:25:23.425Z,12.00
2018-04-22T01:27:51.767Z,11.90
2018-04-22T01:30:20.903Z,11.90
2018-04-22T01:32:50.039Z,11.90
2018-04-22T01:35:18.454Z,11.90
2018-04-22T01:37:46.817Z,11.90
2018-04-22T01:40:15.258Z,11.90
2018-04-22T01:42:43.814Z,11.90
2018-04-22T01:45:12.147Z,11.90
2018-04-22T01:47:40.732Z,11.90
2018-04-22T01:50:09.119Z,11.90
2018-04-22T01:52:37.488Z,11.90
2018-04-22T01:55:05.871Z,11.90
2018-04-22T01:57:34.334Z,11.80
2018-04-22T02:00:02.676Z,11.80
2018-04-22T02:02:31.795Z,11.70
2018-04-22T02:05:00.199Z,11.70
2018-04-22T02:07:28.578Z,11.70
2018-04-22T02:09:57.053Z,11.70
2018-04-22T02:12:25.418Z,11.70
2018-04-22T02:14:54.064Z,11.60
2018-04-22T02:17:22.409Z,11.60
2018-04-22T02:19:50.743Z,11.60
2018-04-22T02:22:19.156Z,11.60
2018-04-22T02:24:47.501Z,11.60
2018-04-22T02:27:16.660Z,11.50
2018-04-22T02:29:44.962Z,11.50
2018-04-22T02:32:14.101Z,11.50
2018-04-22T02:34:42.479Z,11.40
2018-04-22T02:37:10.834Z,11.40
2018-04-22T02:39:39.255Z,11.30
2018-04-22T02:42:08.116Z,11.30
2018-04-22T02:44:36.451Z,11.30
2018-04-22T02:47:04.890Z,11.30
2018-04-22T02:49:33.250Z,11.30
2018-04-22T02:52:01.593Z,11.20
2018-04-22T02:54:30.031Z,11.20
2018-04-22T02:56:58.373Z,11.20
2018-04-22T02:59:27.495Z,11.20
2018-04-22T03:01:55.891Z,11.20
2018-04-22T03:04:24.427Z,11.20
2018-04-22T03:06:54.165Z,11.20
2018-04-22T03:09:22.511Z,11.20
2018-04-22T03:11:51.649Z,11.20
2018-04-22T03:14:19.997Z,11.20
2018-04-22T03:16:49.340Z,11.10
2018-04-22T03:19:17.686Z,11.10
2018-04-22T03:21:46.030Z,11.10
2018-04-22T03:24:14.409Z,11.10
2018-04-22T03:26:42.942Z,11.10
2018-04-22T03:29:11.305Z,11.10
2018-04-22T03:31:39.699Z,11.10
2018-04-22T03:34:08.176Z,11.10
2018-04-22T03:36:37.041Z,11.00
2018-04-22T03:39:06.587Z,11.00
2018-04-22T03:41:36.312Z,10.90
2018-04-22T03:44:05.557Z,10.90
2018-04-22T03:46:33.901Z,10.90
2018-04-22T03:49:02.240Z,10.90
2018-04-22T03:51:30.658Z,10.90
2018-04-22T03:53:58.998Z,10.90
2018-04-22T03:56:27.375Z,10.80
2018-04-22T03:58:55.985Z,10.80
2018-04-22T04:01:24.477Z,10.80
2018-04-22T04:03:52.911Z,10.80
2018-04-22T04:06:21.273Z,10.80
2018-04-22T04:08:49.634Z,10.80
2018-04-22T04:11:18.135Z,10.80
2018-04-22T04:13:46.545Z,10.70
2018-04-22T04:16:14.936Z,10.70
2018-04-22T04:19:04.371Z,10.70
2018-04-22T04:21:44.640Z,10.60
2018-04-22T04:30:24.596Z,10.70
2018-04-22T04:32:52.959Z,10.70
2018-04-22T04:35:21.356Z,10.70
2018-04-22T04:37:49.726Z,10.70
2018-04-22T04:40:18.117Z,10.70
2018-04-22T04:42:46.458Z,10.70
2018-04-22T04:45:14.864Z,10.80
2018-04-22T04:47:43.206Z,10.80
2018-04-22T04:50:11.559Z,10.90
2018-04-22T04:52:40.676Z,10.90
2018-04-22T04:55:09.028Z,10.90
2018-04-22T04:57:38.157Z,10.90
2018-04-22T05:00:06.492Z,10.90
2018-04-22T05:02:34.869Z,10.90
2018-04-22T05:05:03.319Z,11.00
2018-04-22T05:07:31.819Z,11.00
2018-04-22T05:10:00.992Z,11.10
2018-04-22T05:12:29.399Z,11.10
2018-04-22T05:14:57.738Z,11.20
2018-04-22T05:17:26.074Z,11.30
2018-04-22T05:19:54.420Z,11.40
2018-04-22T05:22:23.450Z,11.60
2018-04-22T05:24:52.567Z,11.60
2018-04-22T05:27:21.681Z,11.80
2018-04-22T05:29:50.177Z,11.80
2018-04-22T05:32:18.575Z,11.80
2018-04-22T05:34:47.017Z,11.80
2018-04-22T05:37:15.496Z,11.80
2018-04-22T05:39:44.681Z,12.00
2018-04-22T05:42:13.781Z,12.10
2018-04-22T05:44:42.913Z,12.10
2018-04-22T05:47:11.299Z,12.10
2018-04-22T05:49:39.660Z,12.20
2018-04-22T05:52:08.013Z,12.40
2018-04-22T05:54:37.210Z,12.50
2018-04-22T05:57:05.568Z,12.50
2018-04-22T05:59:33.927Z,12.60
2018-04-22T06:02:02.265Z,12.70
2018-04-22T06:04:30.727Z,12.80
2018-04-22T06:06:59.864Z,13.00
2018-04-22T06:09:28.240Z,13.00
2018-04-22T06:11:56.618Z,13.10
2018-04-22T06:14:24.975Z,13.30
2018-04-22T06:16:53.376Z,13.40
2018-04-22T06:19:21.740Z,13.60
2018-04-22T06:21:50.097Z,13.70
2018-04-22T06:24:19.302Z,14.10
2018-04-22T06:26:48.418Z,14.20
2018-04-22T06:29:16.771Z,14.20
2018-04-22T06:31:45.208Z,14.30
2018-04-22T06:34:13.532Z,14.40
2018-04-22T06:36:42.672Z,14.60
2018-04-22T06:39:11.093Z,14.60
2018-04-22T06:41:39.525Z,14.70
2018-04-22T06:44:08.074Z,14.90
2018-04-22T06:46:37.266Z,15.00
2018-04-22T06:49:05.645Z,15.00
2018-04-22T06:51:34.012Z,15.00
2018-04-22T06:54:02.504Z,15.10
2018-04-22T06:56:31.927Z,15.50
2018-04-22T06:59:01.435Z,15.70
2018-04-22T07:01:29.802Z,15.70
2018-04-22T07:03:58.155Z,15.80
2018-04-22T07:06:27.260Z,16.10
2018-04-22T07:08:55.840Z,16.30
2018-04-22T07:11:24.423Z,16.40
2018-04-22T07:13:52.795Z,16.60
2018-04-22T07:16:21.972Z,16.90
2018-04-22T07:18:50.344Z,16.90
2018-04-22T07:21:18.732Z,17.10
2018-04-22T07:23:47.173Z,17.20
2018-04-22T07:26:18.517Z,17.50
2018-04-22T07:28:46.959Z,17.50
2018-04-22T07:31:15.356Z,17.70
2018-04-22T07:33:44.312Z,17.90
2018-04-22T07:36:12.830Z,18.00
2018-04-22T07:38:42.464Z,18.30
2018-04-22T07:41:10.875Z,18.40
2018-04-22T07:43:39.224Z,18.40
2018-04-22T07:46:07.574Z,18.70
2018-04-22T07:48:35.939Z,18.90
2018-04-22T07:51:04.293Z,19.00
2018-04-22T07:53:32.832Z,19.10
2018-04-22T07:56:02.099Z,19.30
2018-04-22T07:58:30.567Z,19.30
2018-04-22T08:00:58.918Z,19.30
2018-04-22T08:03:27.435Z,19.40
2018-04-22T08:05:55.830Z,19.50
2018-04-22T08:08:24.199Z,19.70
2018-04-22T08:10:52.560Z,19.70
2018-04-22T08:13:21.710Z,19.90
2018-04-22T08:15:51.743Z,20.00
2018-04-22T08:18:20.153Z,20.00
2018-04-22T08:20:48.535Z,20.10
2018-04-22T08:23:19.674Z,20.20
2018-04-22T08:25:48.109Z,20.30
2018-04-22T08:28:17.519Z,20.60
2018-04-22T08:30:45.846Z,20.50
2018-04-22T08:33:14.283Z,20.60
2018-04-22T08:35:43.513Z,20.70
2018-04-22T08:38:11.935Z,20.70
2018-04-22T08:40:40.283Z,20.60
2018-04-22T08:43:08.875Z,20.50
2018-04-22T08:45:37.295Z,20.40
2018-04-22T08:48:05.702Z,20.20
2018-04-22T08:50:34.165Z,20.00
2018-04-22T08:53:03.290Z,19.70
2018-04-22T08:55:31.929Z,19.70
2018-04-22T08:58:00.413Z,19.60
2018-04-22T09:00:32.399Z,19.40
2018-04-22T09:03:01.550Z,19.20
2018-04-22T09:05:30.048Z,19.20
2018-04-22T09:07:58.514Z,19.10
2018-04-22T09:10:26.924Z,19.10
2018-04-22T09:12:55.451Z,19.10
2018-04-22T09:15:23.819Z,19.10
2018-04-22T09:17:52.173Z,19.20
2018-04-22T09:20:25.066Z,19.40
2018-04-22T09:22:54.215Z,19.80
2018-04-22T09:25:22.610Z,19.80
2018-04-22T09:27:54.492Z,20.00
2018-04-22T09:30:24.706Z,20.40
2018-04-22T09:32:53.067Z,20.70
2018-04-22T09:35:21.476Z,21.30
2018-04-22T09:37:49.822Z,21.90
2018-04-22T09:40:18.673Z,22.40
2018-04-22T09:42:47.888Z,23.00
2018-04-22T09:45:16.283Z,22.90
2018-04-22T09:47:47.014Z,22.70
2018-04-22T09:50:15.522Z,22.70
2018-04-22T09:52:44.306Z,22.70
2018-04-22T09:55:12.787Z,22.70
2018-04-22T09:57:41.362Z,22.80
2018-04-22T10:00:09.807Z,22.80
2018-04-22T10:02:38.175Z,22.80
2018-04-22T10:05:08.586Z,22.80
2018-04-22T10:07:36.948Z,22.80
2018-04-22T10:10:06.064Z,22.60
2018-04-22T10:12:34.681Z,22.60
2018-04-22T10:15:03.032Z,22.30
2018-04-22T10:17:31.426Z,22.30
2018-04-22T10:19:59.784Z,22.30
2018-04-22T10:22:28.313Z,22.30
2018-04-22T10:24:57.168Z,22.40
2018-04-22T10:27:25.630Z,22.50
2018-04-22T10:29:54.214Z,22.60
2018-04-22T10:32:23.788Z,22.50
2018-04-22T10:34:52.303Z,22.50
2018-04-22T10:37:21.555Z,22.70
2018-04-22T10:39:50.138Z,22.70
2018-04-22T10:42:19.842Z,23.10
2018-04-22T10:44:49.198Z,23.50
2018-04-22T10:47:19.839Z,24.30
2018-04-22T10:49:48.299Z,24.30
2018-04-22T10:52:16.741Z,24.80
2018-04-22T10:54:45.126Z,25.10
2018-04-22T10:57:13.530Z,25.30
2018-04-22T10:59:41.872Z,25.50
2018-04-22T11:02:10.242Z,26.00
2018-04-22T11:04:39.667Z,26.40
2018-04-22T11:07:08.025Z,26.30
2018-04-22T11:09:36.414Z,26.60
2018-04-22T11:12:04.825Z,26.80
2018-04-22T11:14:33.260Z,27.00
2018-04-22T11:17:01.660Z,27.40
2018-04-22T11:19:30.041Z,27.80
2018-04-22T11:21:58.401Z,28.00
2018-04-22T11:24:27.482Z,28.20
2018-04-22T11:26:55.825Z,28.20
2018-04-22T11:29:24.278Z,28.30
2018-04-22T11:31:52.859Z,28.60
2018-04-22T11:34:21.207Z,28.40
2018-04-22T11:36:49.616Z,28.50
2018-04-22T11:39:17.998Z,28.80
2018-04-22T11:41:46.372Z,28.90
2018-04-22T11:44:14.731Z,29.10
2018-04-22T11:46:43.140Z,29.40
2018-04-22T11:49:11.661Z,29.50
2018-04-22T11:51:40.892Z,30.00
2018-04-22T11:54:09.243Z,29.90
2018-04-22T11:56:38.696Z,30.50
2018-04-22T11:59:07.172Z,30.50
2018-04-22T12:01:35.552Z,30.80
2018-04-22T12:04:04.968Z,31.00
2018-04-22T12:06:33.342Z,30.90
2018-04-22T12:09:01.722Z,30.90
2018-04-22T12:11:30.081Z,31.20
2018-04-22T12:13:58.444Z,31.40
2018-04-22T12:16:26.860Z,31.30
2018-04-22T12:18:55.458Z,31.40
2018-04-22T12:21:23.930Z,31.40
2018-04-22T12:23:52.395Z,31.60
2018-04-22T12:26:20.774Z,31.70
2018-04-22T12:28:49.169Z,31.90
2018-04-22T12:31:17.530Z,32.10
2018-04-22T12:33:45.945Z,32.20
2018-04-22T12:36:14.388Z,31.90
2018-04-22T12:38:42.840Z,32.10
2018-04-22T12:41:11.980Z,32.60
2018-04-22T12:43:40.342Z,32.60
2018-04-22T12:46:08.860Z,32.70
2018-04-22T12:48:37.302Z,32.80
2018-04-22T12:51:05.782Z,32.90
2018-04-22T12:53:34.908Z,32.90
2018-04-22T12:56:03.287Z,32.90
2018-04-22T12:58:31.645Z,33.10
2018-04-22T13:01:00.115Z,33.20
2018-04-22T13:03:28.630Z,33.50
2018-04-22T13:05:57.033Z,33.70
2018-04-22T13:08:25.421Z,33.60
2018-04-22T13:10:53.869Z,33.60
2018-04-22T13:13:22.245Z,33.70
2018-04-22T13:15:50.613Z,33.90
2018-04-22T13:18:19.107Z,33.90
2018-04-22T13:20:48.247Z,34.30
2018-04-22T13:23:16.613Z,34.00
2018-04-22T13:25:45.126Z,33.60
2018-04-22T13:28:13.515Z,33.20
2018-04-22T13:30:41.927Z,33.10
2018-04-22T13:33:10.302Z,33.00
2018-04-22T13:35:38.680Z,33.20
2018-04-22T13:38:07.267Z,33.40
2018-04-22T13:40:35.693Z,33.70
2018-04-22T13:43:04.835Z,33.80
2018-04-22T13:45:33.212Z,33.70
2018-04-22T13:48:01.589Z,33.70
2018-04-22T13:50:29.962Z,33.70
2018-04-22T13:52:58.523Z,33.50
2018-04-22T13:55:26.893Z,33.10
2018-04-22T13:57:55.269Z,32.70
2018-04-22T14:00:24.472Z,31.40
2018-04-22T14:02:52.911Z,31.30
2018-04-22T14:05:21.280Z,31.40
2018-04-22T14:07:49.628Z,31.80
2018-04-22T14:10:18.681Z,32.20
2018-04-22T14:12:47.089Z,32.60
2018-04-22T14:15:16.224Z,33.10
2018-04-22T14:17:44.615Z,33.00
2018-04-22T14:20:13.511Z,33.30
2018-04-22T14:22:41.925Z,33.50
2018-04-22T14:25:10.533Z,33.60
2018-04-22T14:27:38.956Z,33.70
2018-04-22T14:30:07.385Z,34.00
2018-04-22T14:32:36.522Z,34.20
2018-04-22T14:35:04.875Z,34.20
2018-04-22T14:37:33.403Z,34.10
2018-04-22T14:40:01.979Z,33.80
2018-04-22T14:42:30.361Z,33.50
2018-04-22T14:45:10.617Z,33.70
2018-04-22T14:47:39.026Z,33.60
2018-04-22T14:50:07.471Z,33.70
2018-04-22T14:52:35.835Z,33.60
2018-04-22T14:55:04.300Z,33.50
2018-04-22T14:57:32.643Z,33.80
2018-04-22T15:00:01.032Z,33.90
2018-04-22T15:02:29.497Z,33.90
2018-04-22T15:04:58.357Z,33.90
2018-04-22T15:07:26.729Z,33.90
2018-04-22T15:09:55.152Z,33.90
2018-04-22T15:12:23.546Z,34.00
2018-04-22T15:14:51.914Z,34.00
2018-04-22T15:17:20.299Z,34.00
2018-04-22T15:19:48.834Z,33.90
2018-04-22T15:22:17.228Z,33.90
2018-04-22T15:24:45.587Z,33.60
2018-04-22T15:27:13.965Z,33.20
2018-04-22T15:29:43.003Z,32.70
2018-04-22T15:32:11.369Z,32.40
2018-04-22T15:34:39.871Z,32.30
2018-04-22T15:37:08.252Z,32.10
2018-04-22T15:39:36.710Z,32.10
2018-04-22T15:42:05.305Z,31.90
2018-04-22T15:44:33.695Z,31.60
2018-04-22T15:47:02.348Z,31.30
2018-04-22T15:49:30.727Z,31.00
2018-04-22T15:51:59.083Z,30.70
2018-04-22T15:54:27.467Z,30.30
2018-04-22T15:56:55.815Z,29.90
2018-04-22T15:59:24.951Z,29.10
2018-04-22T16:01:53.454Z,29.10
2018-04-22T16:04:22.133Z,28.90
2018-04-22T16:06:51.758Z,28.80
2018-04-22T16:09:20.278Z,28.50
2018-04-22T16:11:49.429Z,27.90
2018-04-22T16:14:17.833Z,27.80
2018-04-22T16:16:46.313Z,27.60
2018-04-22T16:19:14.682Z,27.30
2018-04-22T16:21:43.696Z,27.00
2018-04-22T16:24:12.073Z,26.70
2018-04-22T16:26:40.518Z,26.50
2018-04-22T16:29:08.880Z,26.20
2018-04-22T16:31:37.280Z,25.90
2018-04-22T16:34:05.694Z,25.80
2018-04-22T16:36:34.144Z,25.60
2018-04-22T16:39:02.516Z,25.40
2018-04-22T16:41:30.931Z,25.20
2018-04-22T16:43:59.301Z,25.10
2018-04-22T16:46:27.695Z,24.90
2018-04-22T16:48:56.088Z,24.80
2018-04-22T16:51:25.225Z,24.50
2018-04-22T16:53:53.666Z,24.40
2018-04-22T16:56:22.793Z,24.20
2018-04-22T16:58:51.179Z,24.20
2018-04-22T17:01:19.606Z,24.00
2018-04-22T17:03:47.935Z,24.00
2018-04-22T17:06:16.853Z,23.90
2018-04-22T17:08:45.299Z,23.70
2018-04-22T17:11:13.654Z,23.60
2018-04-22T17:13:42.819Z,23.50
2018-04-22T17:16:11.193Z,23.40
2018-04-22T17:18:39.997Z,23.40
2018-04-22T17:21:08.397Z,23.30
2018-04-22T17:23:37.512Z,23.20
2018-04-22T17:26:06.111Z,23.20
2018-04-22T17:28:34.465Z,23.20
2018-04-22T17:31:02.858Z,23.10
2018-04-22T17:33:31.212Z,23.00
2018-04-22T17:36:00.644Z,22.70
2018-04-22T17:38:29.898Z,22.10
2018-04-22T17:40:58.255Z,22.10
2018-04-22T17:43:26.619Z,21.60
2018-04-22T17:45:55.088Z,20.80
2018-04-22T17:48:23.552Z,19.90
2018-04-22T17:50:52.698Z,18.60
2018-04-22T17:53:21.115Z,18.50
2018-04-22T17:55:49.557Z,18.40
2018-04-22T17:58:17.893Z,18.30
2018-04-22T18:00:46.233Z,18.20
2018-04-22T18:03:14.699Z,18.10
2018-04-22T18:05:43.031Z,18.20
2018-04-22T18:08:11.703Z,18.10
2018-04-22T18:10:40.041Z,18.10
2018-04-22T18:13:08.377Z,18.10
2018-04-22T18:15:36.788Z,18.10
2018-04-22T18:18:05.165Z,18.00
2018-04-22T18:20:33.474Z,18.00
2018-04-22T18:23:01.815Z,18.00
2018-04-22T18:25:30.189Z,18.00
2018-04-22T18:27:59.403Z,18.00
2018-04-22T18:30:27.751Z,18.00
2018-04-22T18:32:56.114Z,18.00
2018-04-22T18:35:25.433Z,17.90
2018-04-22T18:37:53.969Z,17.90
2018-04-22T18:40:22.412Z,18.00
2018-04-22T18:42:50.738Z,18.00
2018-04-22T18:45:19.226Z,18.00
2018-04-22T18:47:47.749Z,18.00
2018-04-22T18:50:16.092Z,18.00
2018-04-22T18:52:45.832Z,18.00
2018-04-22T18:55:14.202Z,18.00
2018-04-22T18:57:42.551Z,18.00
2018-04-22T19:00:10.994Z,18.00
2018-04-22T19:02:39.311Z,18.00
2018-04-22T19:05:07.675Z,18.00
2018-04-22T19:07:36.786Z,18.00
2018-04-22T19:10:05.937Z,18.10
2018-04-22T19:12:34.294Z,18.10
2018-04-22T19:15:02.632Z,18.00
2018-04-22T19:17:30.988Z,17.90
2018-04-22T19:19:59.335Z,17.90
2018-04-22T19:22:27.705Z,17.80
2018-04-22T19:24:56.904Z,17.40
2018-04-22T19:27:25.257Z,17.40
2018-04-22T19:29:53.795Z,17.30
2018-04-22T19:32:22.140Z,17.40
2018-04-22T19:34:50.581Z,17.40
2018-04-22T19:37:19.139Z,17.40
2018-04-22T19:39:47.608Z,17.40
2018-04-22T19:42:15.977Z,17.40
2018-04-22T19:44:44.331Z,17.40
2018-04-22T19:47:13.446Z,17.40
2018-04-22T19:49:41.807Z,17.40
2018-04-22T19:52:10.947Z,17.40
2018-04-22T19:54:39.327Z,17.50
2018-04-22T19:57:07.742Z,17.50
2018-04-22T19:59:36.075Z,17.50
2018-04-22T20:02:04.420Z,17.80
2018-04-22T20:04:32.845Z,17.80
2018-04-22T20:07:01.191Z,18.00
2018-04-22T20:09:29.593Z,18.00
2018-04-22T20:11:57.980Z,17.90
2018-04-22T20:14:26.646Z,17.90
2018-04-22T20:16:55.796Z,17.80
2018-04-22T20:19:24.169Z,17.80
2018-04-22T20:21:52.729Z,17.80
2018-04-22T20:24:22.014Z,17.80
2018-04-22T20:26:50.503Z,17.80
2018-04-22T20:29:18.881Z,17.80
2018-04-22T20:31:47.385Z,17.80
2018-04-22T20:34:15.751Z,17.70
2018-04-22T20:36:44.139Z,17.70
2018-04-22T20:39:12.638Z,17.70
2018-04-22T20:41:41.008Z,17.60
2018-04-22T20:44:09.347Z,17.60
2018-04-22T20:46:37.871Z,17.50
2018-04-22T20:49:06.334Z,17.40
2018-04-22T20:51:34.753Z,17.40
2018-04-22T20:54:03.375Z,17.30
2018-04-22T20:56:32.479Z,17.30
2018-04-22T20:59:00.856Z,17.30
2018-04-22T21:01:29.220Z,17.30
2018-04-22T21:03:58.376Z,17.00
2018-04-22T21:06:26.757Z,17.00
2018-04-22T21:08:55.110Z,16.90
2018-04-22T21:11:23.470Z,16.80
2018-04-22T21:13:51.985Z,16.70
2018-04-22T21:16:20.400Z,16.50
2018-04-22T21:18:48.744Z,16.40
2018-04-22T21:21:17.097Z,16.40
2018-04-22T21:23:45.529Z,16.40
2018-04-22T21:26:13.949Z,16.30
2018-04-22T21:28:42.378Z,16.30
2018-04-22T21:31:10.745Z,16.30
2018-04-22T21:33:39.110Z,16.30
2018-04-22T21:36:07.486Z,16.30
2018-04-22T21:38:35.857Z,16.30
2018-04-22T21:41:04.209Z,16.20
2018-04-22T21:43:32.676Z,16.20
2018-04-22T21:46:02.412Z,16.10
2018-04-22T21:48:30.792Z,16.10
2018-04-22T21:50:59.327Z,16.10
2018-04-22T21:53:27.681Z,16.10
2018-04-22T21:55:56.070Z,16.10
2018-04-22T21:58:24.421Z,16.10
2018-04-22T22:00:52.887Z,16.00
2018-04-22T22:03:22.004Z,15.90
2018-04-22T22:05:50.371Z,15.90
2018-04-22T22:08:18.859Z,15.90
2018-04-22T22:10:47.242Z,15.90
2018-04-22T22:13:16.447Z,15.80
2018-04-22T22:15:44.844Z,15.80
2018-04-22T22:18:13.810Z,15.80
2018-04-22T22:20:42.138Z,15.70
2018-04-22T22:23:10.540Z,15.60
2018-04-22T22:25:38.986Z,15.60
2018-04-22T22:28:07.314Z,15.60
2018-04-22T22:30:35.676Z,15.60
2018-04-22T22:33:04.043Z,15.60
2018-04-22T22:35:32.401Z,15.60
2018-04-22T22:38:00.814Z,15.50
2018-04-22T22:40:29.450Z,15.40
2018-04-22T22:42:57.855Z,15.40
2018-04-22T22:45:27.124Z,15.40
2018-04-22T22:47:55.499Z,15.40
2018-04-22T22:50:23.935Z,15.40
2018-04-22T22:52:52.348Z,15.40
2018-04-22T22:55:20.839Z,15.30
2018-04-22T22:57:50.207Z,15.20
2018-04-22T23:00:22.502Z,15.20
2018-04-22T23:02:50.956Z,15.20
2018-04-22T23:05:19.350Z,15.10
2018-04-22T23:07:47.698Z,15.10
2018-04-22T23:10:16.144Z,15.10
2018-04-22T23:12:44.505Z,15.10
2018-04-22T23:15:12.848Z,15.00
2018-04-22T23:17:41.275Z,15.00
2018-04-22T23:20:09.751Z,15.00
2018-04-22T23:22:38.119Z,15.00
2018-04-22T23:25:06.487Z,15.00
2018-04-22T23:27:35.606Z,15.00
2018-04-22T23:30:04.045Z,15.00
2018-04-22T23:32:32.567Z,15.00
2018-04-22T23:35:00.955Z,15.00
2018-04-22T23:37:30.165Z,15.00
2018-04-22T23:39:58.835Z,15.00
2018-04-22T23:42:27.177Z,15.00
2018-04-22T23:44:56.302Z,15.00
2018-04-22T23:47:24.640Z,15.00
2018-04-22T23:49:53.432Z,15.00
2018-04-22T23:52:21.787Z,14.90
2018-04-22T23:54:50.138Z,15.00
2018-04-22T23:57:18.508Z,15.00
2018-04-22T23:59:46.854Z,15.00
